createdAt,value
2018-08-08T00:01:45.970Z,27.90
2018-08-08T00:04:14.472Z,27.90
2018-08-08T00:06:42.954Z,27.90
2018-08-08T00:09:12.250Z,27.90
2018-08-08T00:11:40.975Z,27.90
2018-08-08T00:16:37.628Z,27.90
2018-08-08T00:19:06.076Z,28.00
2018-08-08T00:21:34.497Z,27.90
2018-08-08T00:24:02.969Z,27.90
2018-08-08T00:26:31.569Z,27.80
2018-08-08T00:28:59.959Z,27.80
2018-08-08T00:31:28.398Z,27.80
2018-08-08T00:33:56.926Z,27.90
2018-08-08T00:36:25.355Z,27.90
2018-08-08T00:38:53.747Z,27.80
2018-08-08T00:41:22.186Z,27.80
2018-08-08T00:43:50.597Z,27.90
2018-08-08T00:48:47.318Z,27.90
2018-08-08T00:51:15.819Z,27.70
2018-08-08T00:53:44.440Z,27.60
2018-08-08T00:56:12.839Z,27.50
2018-08-08T00:58:41.363Z,27.60
2018-08-08T01:01:09.766Z,27.70
2018-08-08T01:03:38.209Z,27.80
2018-08-08T01:06:06.667Z,27.80
2018-08-08T01:08:35.223Z,27.80
2018-08-08T01:11:03.806Z,27.80
2018-08-08T01:13:32.237Z,27.80
2018-08-08T01:16:00.639Z,27.80
2018-08-08T01:18:29.034Z,27.80
2018-08-08T01:20:57.557Z,27.90
2018-08-08T01:23:25.899Z,27.90
2018-08-08T01:25:54.261Z,27.90
2018-08-08T01:28:22.723Z,27.80
2018-08-08T01:33:19.219Z,27.80
2018-08-08T01:35:47.690Z,27.80
2018-08-08T01:38:16.209Z,27.90
2018-08-08T01:40:44.657Z,27.90
2018-08-08T01:43:13.166Z,27.90
2018-08-08T01:45:41.654Z,27.90
2018-08-08T01:48:10.086Z,27.90
2018-08-08T01:50:38.664Z,27.90
2018-08-08T01:53:06.987Z,27.90
2018-08-08T01:55:35.449Z,27.90
2018-08-08T01:58:03.825Z,27.90
2018-08-08T02:00:32.295Z,27.90
2018-08-08T02:03:00.720Z,27.90
2018-08-08T02:05:29.140Z,28.00
2018-08-08T02:07:57.492Z,27.90
2018-08-08T02:10:25.905Z,27.90
2018-08-08T02:12:54.303Z,27.90
2018-08-08T02:15:22.652Z,27.90
2018-08-08T02:17:51.074Z,28.00
2018-08-08T02:20:19.530Z,28.00
2018-08-08T02:22:48.006Z,28.00
2018-08-08T02:25:17.114Z,27.90
2018-08-08T02:27:45.724Z,27.90
2018-08-08T02:30:17.524Z,27.90
2018-08-08T02:32:46.685Z,27.80
2018-08-08T02:35:15.231Z,27.80
2018-08-08T02:37:43.744Z,27.90
2018-08-08T02:40:12.405Z,27.90
2018-08-08T02:42:41.345Z,27.90
2018-08-08T02:45:12.652Z,27.80
2018-08-08T02:47:41.052Z,27.90
2018-08-08T02:50:11.780Z,27.90
2018-08-08T02:52:40.249Z,27.80
2018-08-08T02:55:09.873Z,27.80
2018-08-08T02:57:38.853Z,27.80
2018-08-08T03:02:36.401Z,27.80
2018-08-08T03:05:06.040Z,27.80
2018-08-08T03:07:34.418Z,27.60
2018-08-08T03:10:02.889Z,27.40
2018-08-08T03:12:31.324Z,27.30
2018-08-08T03:14:59.715Z,27.40
2018-08-08T03:17:28.098Z,27.40
2018-08-08T03:19:56.774Z,27.10
2018-08-08T03:22:25.206Z,27.00
2018-08-08T03:24:53.574Z,27.20
2018-08-08T03:27:21.953Z,27.20
2018-08-08T03:29:50.546Z,27.30
2018-08-08T03:32:19.038Z,27.40
2018-08-08T03:34:47.435Z,27.40
2018-08-08T03:37:15.850Z,27.50
2018-08-08T03:39:44.248Z,27.50
2018-08-08T03:42:12.662Z,27.50
2018-08-08T03:44:41.084Z,27.50
2018-08-08T03:47:09.448Z,27.50
2018-08-08T03:49:37.856Z,27.60
2018-08-08T03:52:06.417Z,27.60
2018-08-08T03:54:34.806Z,27.60
2018-08-08T03:57:03.190Z,27.60
2018-08-08T03:59:31.681Z,27.70
2018-08-08T04:02:00.047Z,27.70
2018-08-08T04:04:28.552Z,27.70
2018-08-08T04:06:56.978Z,27.60
2018-08-08T04:09:25.313Z,27.60
2018-08-08T04:11:53.679Z,27.60
2018-08-08T04:14:22.262Z,27.70
2018-08-08T04:16:50.811Z,27.70
2018-08-08T04:19:19.226Z,27.70
2018-08-08T04:21:47.594Z,27.70
2018-08-08T04:24:16.177Z,27.70
2018-08-08T04:26:44.522Z,27.70
2018-08-08T04:29:12.912Z,27.70
2018-08-08T04:31:41.325Z,27.70
2018-08-08T04:34:09.828Z,27.70
2018-08-08T04:36:38.161Z,27.60
2018-08-08T04:39:08.042Z,27.60
2018-08-08T04:44:04.744Z,27.60
2018-08-08T04:46:33.208Z,27.60
2018-08-08T04:49:01.572Z,27.60
2018-08-08T04:51:30.061Z,27.60
2018-08-08T04:53:58.581Z,27.60
2018-08-08T04:56:26.988Z,27.60
2018-08-08T04:58:55.402Z,27.60
2018-08-08T05:01:23.831Z,27.70
2018-08-08T05:03:52.658Z,27.70
2018-08-08T05:06:21.216Z,27.70
2018-08-08T05:08:49.824Z,27.60
2018-08-08T05:11:18.443Z,27.60
2018-08-08T05:13:47.012Z,27.60
2018-08-08T05:16:15.452Z,27.60
2018-08-08T05:18:43.830Z,27.50
2018-08-08T05:21:12.312Z,27.40
2018-08-08T05:23:40.716Z,27.40
2018-08-08T05:26:09.207Z,27.50
2018-08-08T05:28:37.658Z,27.50
2018-08-08T05:31:06.304Z,27.50
2018-08-08T05:36:02.868Z,27.60
2018-08-08T05:38:31.368Z,27.50
2018-08-08T05:41:00.058Z,27.50
2018-08-08T05:43:28.745Z,27.50
2018-08-08T05:45:57.118Z,27.50
2018-08-08T05:48:25.605Z,27.50
2018-08-08T05:50:54.239Z,27.50
2018-08-08T05:53:23.076Z,27.40
2018-08-08T05:55:51.563Z,27.10
2018-08-08T05:58:20.140Z,27.20
2018-08-08T06:00:48.649Z,27.20
2018-08-08T06:03:17.224Z,27.20
2018-08-08T06:05:46.333Z,27.10
2018-08-08T06:08:15.487Z,27.10
2018-08-08T06:10:43.955Z,27.10
2018-08-08T06:13:12.414Z,27.00
2018-08-08T06:15:40.977Z,27.00
2018-08-08T06:18:09.469Z,27.00
2018-08-08T06:20:37.875Z,27.10
2018-08-08T06:23:06.391Z,27.20
2018-08-08T06:25:34.823Z,27.30
2018-08-08T06:28:05.647Z,27.30
2018-08-08T06:33:02.585Z,27.40
2018-08-08T06:35:31.329Z,27.40
2018-08-08T06:37:59.795Z,27.40
2018-08-08T06:40:28.325Z,27.50
2018-08-08T06:42:56.743Z,27.50
2018-08-08T06:45:28.687Z,27.50
2018-08-08T06:47:57.165Z,27.50
2018-08-08T06:52:53.767Z,27.50
2018-08-08T06:55:22.163Z,27.50
2018-08-08T06:57:50.663Z,27.60
2018-08-08T07:00:21.819Z,27.60
2018-08-08T07:02:50.329Z,27.60
2018-08-08T07:05:19.384Z,27.60
2018-08-08T07:07:48.609Z,27.60
2018-08-08T07:10:17.098Z,27.60
2018-08-08T07:12:45.623Z,27.60
2018-08-08T07:15:15.527Z,27.60
2018-08-08T07:17:43.979Z,27.60
2018-08-08T07:20:13.787Z,27.60
2018-08-08T07:22:42.327Z,27.70
2018-08-08T07:25:13.341Z,27.70
2018-08-08T07:27:41.857Z,27.70
2018-08-08T07:32:40.155Z,27.70
2018-08-08T07:35:09.665Z,27.70
2018-08-08T07:37:38.078Z,27.70
2018-08-08T07:40:08.321Z,27.80
2018-08-08T07:42:36.921Z,27.80
2018-08-08T07:47:34.203Z,27.80
2018-08-08T07:50:02.753Z,27.90
2018-08-08T07:52:31.151Z,27.80
2018-08-08T07:54:59.565Z,27.90
2018-08-08T07:57:28.084Z,27.90
2018-08-08T07:59:56.559Z,27.90
2018-08-08T08:02:25.861Z,28.00
2018-08-08T08:04:54.396Z,28.00
2018-08-08T08:07:22.797Z,28.00
2018-08-08T08:09:51.362Z,28.00
2018-08-08T08:12:19.853Z,28.00
2018-08-08T08:14:48.242Z,28.00
2018-08-08T08:17:16.725Z,28.00
2018-08-08T08:19:45.295Z,28.00
2018-08-08T08:22:14.204Z,28.00
2018-08-08T08:24:42.722Z,28.00
2018-08-08T08:27:11.341Z,28.00
2018-08-08T08:29:39.762Z,28.00
2018-08-08T08:32:08.170Z,28.00
2018-08-08T08:34:36.741Z,28.00
2018-08-08T08:37:05.448Z,28.10
2018-08-08T08:39:33.842Z,28.10
2018-08-08T08:42:02.392Z,28.10
2018-08-08T08:44:30.830Z,28.10
2018-08-08T08:46:59.354Z,28.00
2018-08-08T08:49:28.004Z,28.10
2018-08-08T08:51:56.643Z,28.10
2018-08-08T08:54:25.144Z,28.00
2018-08-08T08:56:53.596Z,28.10
2018-08-08T08:59:22.210Z,28.10
2018-08-08T09:01:50.960Z,28.10
2018-08-08T09:04:20.070Z,28.10
2018-08-08T09:06:48.601Z,28.10
2018-08-08T09:11:45.275Z,28.10
2018-08-08T09:14:14.516Z,28.10
2018-08-08T09:16:42.944Z,28.10
2018-08-08T09:19:11.359Z,28.10
2018-08-08T09:21:40.356Z,28.10
2018-08-08T09:24:34.112Z,28.10
2018-08-08T09:27:02.736Z,28.10
2018-08-08T09:29:31.304Z,28.10
2018-08-08T09:31:59.968Z,28.10
2018-08-08T09:34:28.636Z,28.10
2018-08-08T09:36:57.295Z,28.10
2018-08-08T09:39:25.857Z,28.10
2018-08-08T09:41:54.342Z,28.10
2018-08-08T09:44:22.914Z,28.10
2018-08-08T09:46:51.443Z,28.10
2018-08-08T09:49:19.901Z,28.10
2018-08-08T09:51:48.285Z,28.10
2018-08-08T09:54:16.987Z,28.10
2018-08-08T09:56:45.625Z,28.10
2018-08-08T09:59:14.028Z,28.10
2018-08-08T10:01:47.787Z,28.10
2018-08-08T10:04:22.079Z,28.10
2018-08-08T10:06:50.570Z,28.10
2018-08-08T10:09:19.042Z,28.10
2018-08-08T10:11:47.572Z,28.10
2018-08-08T10:14:16.106Z,28.10
2018-08-08T10:16:44.562Z,28.10
2018-08-08T10:19:13.068Z,28.10
2018-08-08T10:21:41.553Z,28.10
2018-08-08T10:24:10.033Z,28.10
2018-08-08T10:26:38.551Z,28.10
2018-08-08T10:29:07.120Z,28.10
2018-08-08T10:31:35.678Z,28.10
2018-08-08T10:34:04.306Z,28.10
2018-08-08T10:36:32.876Z,28.10
2018-08-08T10:39:01.288Z,28.10
2018-08-08T10:41:29.816Z,28.10
2018-08-08T10:43:58.236Z,28.10
2018-08-08T10:46:26.709Z,28.10
2018-08-08T10:48:55.209Z,28.10
2018-08-08T10:51:23.720Z,28.10
2018-08-08T10:53:52.264Z,28.10
2018-08-08T10:56:20.807Z,28.10
2018-08-08T10:58:49.224Z,28.10
2018-08-08T11:01:17.660Z,28.10
2018-08-08T11:03:46.070Z,28.10
2018-08-08T11:06:14.480Z,28.10
2018-08-08T11:08:42.886Z,28.10
2018-08-08T11:11:11.421Z,28.10
2018-08-08T11:13:39.960Z,28.20
2018-08-08T11:16:08.785Z,28.10
2018-08-08T11:18:37.374Z,28.20
2018-08-08T11:21:05.776Z,28.20
2018-08-08T11:23:34.328Z,28.20
2018-08-08T11:26:02.856Z,28.20
2018-08-08T11:28:31.255Z,28.20
2018-08-08T11:30:59.916Z,28.20
2018-08-08T11:33:28.655Z,28.20
2018-08-08T11:35:57.213Z,28.20
2018-08-08T11:38:25.762Z,28.20
2018-08-08T11:40:54.184Z,28.20
2018-08-08T11:43:22.737Z,28.20
2018-08-08T11:45:51.157Z,28.20
2018-08-08T11:48:19.565Z,28.20
2018-08-08T11:50:48.029Z,28.20
2018-08-08T11:53:16.483Z,28.20
2018-08-08T11:55:44.881Z,28.20
2018-08-08T11:58:13.211Z,28.20
2018-08-08T12:00:41.618Z,28.20
2018-08-08T12:03:10.036Z,28.20
2018-08-08T12:05:38.542Z,28.20
2018-08-08T12:08:07.107Z,28.20
2018-08-08T12:10:35.689Z,28.20
2018-08-08T12:13:04.100Z,28.20
2018-08-08T12:15:32.456Z,28.20
2018-08-08T12:18:00.849Z,28.20
2018-08-08T12:20:29.438Z,28.20
2018-08-08T12:22:57.894Z,28.20
2018-08-08T12:25:26.371Z,28.20
2018-08-08T12:27:54.744Z,28.20
2018-08-08T12:30:23.156Z,28.20
2018-08-08T12:32:51.570Z,28.20
2018-08-08T12:35:20.113Z,28.20
2018-08-08T12:37:48.699Z,28.20
2018-08-08T12:40:17.059Z,28.20
2018-08-08T12:42:45.635Z,28.10
2018-08-08T12:45:14.009Z,28.10
2018-08-08T12:47:42.608Z,28.10
2018-08-08T12:50:10.996Z,28.10
2018-08-08T12:52:39.595Z,28.10
2018-08-08T12:55:08.059Z,28.10
2018-08-08T12:57:36.602Z,28.10
2018-08-08T13:00:05.580Z,28.10
2018-08-08T13:02:34.006Z,28.10
2018-08-08T13:05:02.461Z,28.10
2018-08-08T13:07:31.012Z,28.10
2018-08-08T13:09:59.507Z,28.20
2018-08-08T13:12:27.848Z,28.20
2018-08-08T13:14:56.313Z,28.20
2018-08-08T13:17:24.719Z,28.40
2018-08-08T13:19:53.249Z,28.40
2018-08-08T13:22:21.653Z,28.50
2018-08-08T13:24:50.122Z,28.60
2018-08-08T13:27:18.621Z,28.50
2018-08-08T13:29:47.271Z,28.50
2018-08-08T13:32:15.761Z,28.50
2018-08-08T13:34:44.203Z,28.40
2018-08-08T13:37:12.705Z,28.50
2018-08-08T13:39:41.166Z,28.60
2018-08-08T13:42:09.634Z,28.80
2018-08-08T13:44:38.008Z,28.80
2018-08-08T13:47:06.466Z,28.70
2018-08-08T13:49:34.984Z,28.70
2018-08-08T13:52:03.409Z,28.70
2018-08-08T13:54:31.865Z,28.90
2018-08-08T13:57:00.451Z,29.00
2018-08-08T13:59:28.961Z,29.10
2018-08-08T14:01:57.441Z,29.10
2018-08-08T14:04:26.040Z,29.10
2018-08-08T14:06:54.468Z,29.10
2018-08-08T14:09:23.244Z,29.20
2018-08-08T14:11:57.993Z,29.30
2018-08-08T14:14:26.438Z,29.40
2018-08-08T14:16:54.921Z,29.40
2018-08-08T14:19:23.428Z,29.30
2018-08-08T14:21:52.040Z,29.10
2018-08-08T14:24:20.447Z,29.00
2018-08-08T14:26:48.915Z,28.90
2018-08-08T14:29:17.595Z,28.80
2018-08-08T14:31:46.109Z,28.80
2018-08-08T14:34:14.525Z,28.80
2018-08-08T14:36:42.929Z,28.70
2018-08-08T14:39:12.561Z,28.70
2018-08-08T14:41:41.634Z,28.70
2018-08-08T14:44:10.573Z,28.70
2018-08-08T14:46:39.415Z,28.60
2018-08-08T14:49:08.508Z,28.60
2018-08-08T14:51:36.999Z,28.60
2018-08-08T14:54:05.519Z,28.60
2018-08-08T14:56:34.199Z,28.60
2018-08-08T14:59:02.593Z,28.60
2018-08-08T15:01:31.459Z,28.60
2018-08-08T15:04:00.089Z,28.60
2018-08-08T15:06:28.546Z,28.60
2018-08-08T15:08:57.028Z,28.50
2018-08-08T15:11:25.511Z,28.50
2018-08-08T15:13:53.955Z,28.50
2018-08-08T15:16:22.499Z,28.50
2018-08-08T15:18:51.064Z,28.50
2018-08-08T15:21:19.555Z,28.50
2018-08-08T15:23:48.374Z,28.50
2018-08-08T15:26:16.787Z,28.50
2018-08-08T15:31:20.008Z,28.50
2018-08-08T15:33:48.537Z,28.50
2018-08-08T15:36:16.925Z,28.50
2018-08-08T15:38:45.300Z,28.50
2018-08-08T15:41:13.825Z,28.50
2018-08-08T15:43:42.377Z,28.50
2018-08-08T15:46:10.770Z,28.50
2018-08-08T15:48:39.166Z,28.50
2018-08-08T15:51:08.129Z,28.50
2018-08-08T15:53:36.516Z,28.50
2018-08-08T15:56:05.006Z,28.50
2018-08-08T15:58:33.419Z,28.50
2018-08-08T16:01:01.878Z,28.50
2018-08-08T16:03:30.309Z,28.50
2018-08-08T16:05:58.758Z,28.50
2018-08-08T16:08:27.267Z,28.60
2018-08-08T16:10:55.730Z,28.60
2018-08-08T16:13:24.130Z,28.80
2018-08-08T16:15:52.630Z,29.20
2018-08-08T16:18:21.083Z,29.30
2018-08-08T16:20:49.559Z,29.40
2018-08-08T16:23:18.046Z,29.50
2018-08-08T16:25:46.504Z,29.30
2018-08-08T16:28:14.938Z,29.30
2018-08-08T16:30:43.423Z,29.50
2018-08-08T16:33:11.915Z,29.60
2018-08-08T16:35:40.320Z,29.70
2018-08-08T16:38:08.855Z,29.70
2018-08-08T16:40:37.372Z,29.70
2018-08-08T16:43:05.909Z,29.70
2018-08-08T16:45:34.339Z,29.80
2018-08-08T16:48:02.783Z,29.80
2018-08-08T16:50:31.167Z,29.80
2018-08-08T16:52:59.673Z,29.80
2018-08-08T16:55:28.151Z,29.80
2018-08-08T16:57:56.515Z,29.70
2018-08-08T17:00:25.012Z,29.60
2018-08-08T17:02:53.447Z,29.60
2018-08-08T17:05:21.936Z,29.60
2018-08-08T17:07:50.360Z,29.60
2018-08-08T17:10:18.769Z,29.60
2018-08-08T17:12:47.203Z,29.60
2018-08-08T17:15:15.897Z,29.60
2018-08-08T17:17:44.293Z,29.50
2018-08-08T17:20:12.892Z,29.50
2018-08-08T17:22:41.696Z,29.50
2018-08-08T17:25:10.211Z,29.50
2018-08-08T17:27:38.589Z,29.40
2018-08-08T17:30:07.356Z,29.40
2018-08-08T17:32:35.705Z,29.40
2018-08-08T17:35:04.109Z,29.40
2018-08-08T17:37:32.589Z,29.40
2018-08-08T17:40:01.188Z,29.40
2018-08-08T17:42:29.605Z,29.30
2018-08-08T17:44:58.061Z,29.30
2018-08-08T17:47:26.516Z,29.30
2018-08-08T17:49:55.071Z,29.30
2018-08-08T17:52:23.539Z,29.20
2018-08-08T17:54:51.905Z,29.20
2018-08-08T17:57:20.454Z,29.10
2018-08-08T17:59:48.895Z,29.10
2018-08-08T18:02:17.411Z,29.10
2018-08-08T18:04:45.853Z,29.10
2018-08-08T18:07:14.347Z,29.00
2018-08-08T18:09:42.787Z,29.00
2018-08-08T18:12:11.143Z,29.00
2018-08-08T18:14:39.621Z,29.00
2018-08-08T18:17:08.067Z,29.00
2018-08-08T18:19:36.412Z,28.90
2018-08-08T18:22:04.892Z,28.90
2018-08-08T18:24:33.335Z,28.90
2018-08-08T18:27:01.857Z,28.90
2018-08-08T18:29:30.516Z,28.90
2018-08-08T18:31:58.925Z,28.90
2018-08-08T18:34:27.465Z,28.80
2018-08-08T18:36:55.851Z,28.80
2018-08-08T18:39:24.252Z,28.80
2018-08-08T18:41:52.709Z,28.80
2018-08-08T18:44:21.180Z,28.80
2018-08-08T18:46:50.061Z,28.80
2018-08-08T18:49:18.486Z,28.80
2018-08-08T18:51:46.877Z,28.80
2018-08-08T18:54:15.396Z,28.70
2018-08-08T18:56:43.858Z,28.70
2018-08-08T18:59:12.339Z,28.70
2018-08-08T19:01:40.821Z,28.60
2018-08-08T19:04:09.269Z,28.60
2018-08-08T19:06:37.760Z,28.60
2018-08-08T19:09:07.931Z,28.60
2018-08-08T19:11:36.375Z,28.60
2018-08-08T19:14:05.128Z,28.50
2018-08-08T19:16:33.523Z,28.50
2018-08-08T19:19:01.909Z,28.50
2018-08-08T19:21:30.576Z,28.60
2018-08-08T19:23:59.158Z,28.60
2018-08-08T19:26:27.660Z,28.70
2018-08-08T19:28:56.296Z,28.70
2018-08-08T19:31:24.770Z,28.70
2018-08-08T19:33:53.159Z,28.70
2018-08-08T19:36:21.676Z,28.70
2018-08-08T19:38:50.111Z,28.70
2018-08-08T19:41:18.461Z,28.60
2018-08-08T19:43:46.922Z,28.70
2018-08-08T19:46:15.357Z,28.70
2018-08-08T19:48:43.759Z,28.70
2018-08-08T19:51:12.397Z,28.70
2018-08-08T19:53:40.772Z,28.70
2018-08-08T19:56:09.170Z,28.70
2018-08-08T19:58:37.575Z,28.80
2018-08-08T20:01:06.029Z,28.70
2018-08-08T20:03:34.504Z,28.70
2018-08-08T20:06:02.955Z,28.70
2018-08-08T20:08:31.500Z,28.70
2018-08-08T20:10:59.877Z,28.70
2018-08-08T20:13:28.285Z,28.70
2018-08-08T20:15:59.137Z,28.60
2018-08-08T20:18:27.724Z,28.70
2018-08-08T20:20:56.747Z,28.70
2018-08-08T20:23:25.161Z,28.70
2018-08-08T20:25:53.564Z,28.60
2018-08-08T20:28:22.020Z,28.50
2018-08-08T20:30:51.257Z,28.50
2018-08-08T20:33:20.377Z,28.60
2018-08-08T20:35:49.442Z,28.60
2018-08-08T20:38:18.343Z,28.60
2018-08-08T20:40:46.859Z,28.60
2018-08-08T20:43:15.258Z,28.50
2018-08-08T20:45:44.045Z,28.40
2018-08-08T20:48:12.470Z,28.50
2018-08-08T20:50:40.832Z,28.50
2018-08-08T20:53:09.275Z,28.50
2018-08-08T20:55:37.678Z,28.40
2018-08-08T20:58:06.035Z,28.40
2018-08-08T21:00:34.461Z,28.30
2018-08-08T21:03:02.880Z,28.30
2018-08-08T21:05:31.369Z,28.40
2018-08-08T21:07:59.777Z,28.30
2018-08-08T21:10:28.157Z,28.30
2018-08-08T21:12:56.796Z,28.30
2018-08-08T21:15:25.149Z,28.30
2018-08-08T21:17:53.549Z,28.40
2018-08-08T21:20:21.966Z,28.40
2018-08-08T21:22:50.433Z,28.40
2018-08-08T21:25:19.035Z,28.40
2018-08-08T21:27:47.549Z,28.40
2018-08-08T21:30:16.057Z,28.40
2018-08-08T21:32:44.531Z,28.30
2018-08-08T21:35:12.936Z,28.20
2018-08-08T21:37:41.504Z,28.30
2018-08-08T21:40:09.896Z,28.40
2018-08-08T21:42:38.329Z,28.30
2018-08-08T21:45:07.177Z,28.30
2018-08-08T21:47:35.743Z,28.40
2018-08-08T21:50:04.973Z,28.30
2018-08-08T21:52:33.439Z,28.40
2018-08-08T21:55:13.346Z,28.40
2018-08-08T21:57:53.408Z,28.40
2018-08-08T22:00:33.271Z,28.40
2018-08-08T22:03:12.982Z,28.40
2018-08-08T22:05:52.575Z,28.40
2018-08-08T22:08:32.429Z,28.40
2018-08-08T22:11:15.381Z,28.30
2018-08-08T22:13:55.674Z,28.30
2018-08-08T22:16:35.273Z,28.30
2018-08-08T22:19:40.666Z,28.20
2018-08-08T22:22:09.063Z,28.10
2018-08-08T22:24:37.619Z,28.00
2018-08-08T22:27:06.051Z,28.10
2018-08-08T22:29:34.461Z,28.10
2018-08-08T22:32:02.982Z,28.10
2018-08-08T22:34:31.427Z,28.20
2018-08-08T22:36:59.913Z,28.20
2018-08-08T22:39:28.236Z,28.20
2018-08-08T22:41:56.608Z,28.10
2018-08-08T22:44:25.007Z,28.10
2018-08-08T22:46:53.545Z,28.10
2018-08-08T22:49:21.957Z,28.10
2018-08-08T22:51:50.388Z,28.10
2018-08-08T22:54:18.857Z,28.10
2018-08-08T22:56:47.405Z,28.00
2018-08-08T22:59:15.855Z,28.00
2018-08-08T23:01:44.252Z,28.00
2018-08-08T23:04:12.822Z,27.90
2018-08-08T23:06:41.288Z,27.90
2018-08-08T23:09:10.752Z,27.90
2018-08-08T23:11:39.262Z,27.90
2018-08-08T23:14:07.916Z,27.90
2018-08-08T23:16:36.306Z,27.90
2018-08-08T23:19:04.873Z,27.90
2018-08-08T23:21:33.236Z,27.90
2018-08-08T23:24:01.624Z,27.90
2018-08-08T23:26:30.129Z,28.00
2018-08-08T23:28:58.569Z,28.00
2018-08-08T23:31:27.069Z,28.00
2018-08-08T23:33:55.534Z,28.00
2018-08-08T23:36:24.110Z,28.00
2018-08-08T23:38:52.556Z,28.00
2018-08-08T23:41:20.970Z,28.00
2018-08-08T23:43:49.430Z,28.00
2018-08-08T23:46:17.758Z,28.10
2018-08-08T23:48:46.173Z,28.00
2018-08-08T23:51:14.538Z,28.10
2018-08-08T23:53:43.012Z,28.10
2018-08-08T23:56:11.474Z,28.10
2018-08-08T23:58:39.820Z,28.10
